Time;durP1;ratioP1;P1;durP2;ratioP2;P2;SDS_P1;SDS_P2;PMS_P1;PMS_P2;Temp;Humidity;BMP_temperature;BMP_pressure;BME280_temperature;BME280_humidity;BME280_pressure;Samples;Min_cycle;Max_cycle;Signal;HPM_P1;HPM_P2
2023/05/01 00:02:09;;;;;;;;;23.75;22.50;;;;;15.62;100.00;101460.25;5077654;28;45415;-70
2023/05/01 00:04:34;;;;;;;;;23.50;23.50;;;;;15.58;100.00;101456.69;5077675;28;60075;-70
2023/05/01 00:07:00;;;;;;;;;23.75;23.75;;;;;15.52;100.00;101454.03;5078923;28;46813;-70
2023/05/01 00:09:28;;;;;;;;;25.50;24.25;;;;;15.47;100.00;101453.16;5060654;28;45280;-71
2023/05/01 00:11:54;;;;;;;;;23.25;20.25;;;;;15.48;100.00;101467.34;5079102;28;45509;-70
2023/05/01 00:14:19;;;;;;;;;25.00;24.00;;;;;15.39;100.00;101449.56;5072157;28;45309;-71
2023/05/01 00:16:47;;;;;;;;;23.50;22.00;;;;;15.36;100.00;101453.13;5058283;28;45475;-71
2023/05/01 00:19:17;;;;;;;;;26.75;23.50;;;;;15.29;100.00;101447.81;5078832;28;45458;-71
2023/05/01 00:21:44;;;;;;;;;27.00;21.25;;;;;15.24;100.00;101446.91;5057557;28;45240;-70
2023/05/01 00:24:10;;;;;;;;;22.75;18.50;;;;;15.20;100.00;101441.56;5076180;28;45489;-71
2023/05/01 00:26:35;;;;;;;;;22.50;19.00;;;;;15.20;100.00;101451.34;5056948;28;46166;-70
2023/05/01 00:29:01;;;;;;;;;24.50;22.75;;;;;15.16;100.00;101453.09;5059873;28;45374;-71
2023/05/01 00:31:26;;;;;;;;;27.00;21.00;;;;;15.15;100.00;101451.31;5078496;28;49196;-70
2023/05/01 00:33:52;;;;;;;;;22.00;19.50;;;;;15.14;100.00;101452.22;5078651;28;45332;-71
2023/05/01 00:36:17;;;;;;;;;27.75;23.50;;;;;15.11;100.00;101449.53;5078544;28;46397;-70
2023/05/01 00:38:42;;;;;;;;;30.00;24.00;;;;;15.09;100.00;101448.66;5072850;28;68182;-70
2023/05/01 00:41:08;;;;;;;;;28.50;24.25;;;;;15.06;100.00;101434.44;5078377;28;45542;-70
2023/05/01 00:43:34;;;;;;;;;26.50;25.75;;;;;15.03;100.00;101427.38;5078363;28;45383;-71
2023/05/01 00:45:59;;;;;;;;;28.75;22.50;;;;;15.00;100.00;101426.47;5077220;28;70325;-71
2023/05/01 00:48:25;;;;;;;;;29.75;25.00;;;;;14.99;100.00;101425.56;5077383;28;68333;-70
2023/05/01 00:50:51;;;;;;;;;29.25;23.25;;;;;14.98;100.00;101425.59;5078650;28;45209;-71
2023/05/01 00:53:17;;;;;;;;;27.75;26.25;;;;;14.97;100.00;101423.78;5076898;28;45421;-70
2023/05/01 00:55:44;;;;;;;;;27.25;27.00;;;;;14.96;100.00;101428.22;5076954;28;46495;-71
2023/05/01 00:58:10;;;;;;;;;27.25;21.00;;;;;14.92;100.00;101422.03;5055904;28;62914;-71
2023/05/01 01:00:36;;;;;;;;;29.00;25.50;;;;;14.90;100.00;101415.78;5052710;28;45481;-71
2023/05/01 01:03:03;;;;;;;;;28.50;26.50;;;;;14.89;100.00;101414.03;5078198;28;45454;-71
2023/05/01 01:05:31;;;;;;;;;25.00;22.00;;;;;14.86;100.00;101407.78;5077865;28;46167;-71
2023/05/01 01:07:57;;;;;;;;;27.75;23.75;;;;;14.86;100.00;101410.47;5059634;28;45336;-71
2023/05/01 01:10:36;;;;;;;;;28.00;26.00;;;;;14.85;100.00;101403.38;5078083;28;45276;-71
2023/05/01 01:13:08;;;;;;;;;29.75;26.25;;;;;14.81;100.00;101397.19;5076749;28;45410;-71
2023/05/01 01:15:44;;;;;;;;;30.00;27.50;;;;;14.82;100.00;101392.75;5071716;28;46591;-71
2023/05/01 01:18:25;;;;;;;;;28.00;22.50;;;;;14.81;100.00;101390.97;5039558;28;45283;-71
2023/05/01 01:21:01;;;;;;;;;24.50;21.50;;;;;14.78;100.00;101389.19;5056661;28;45254;-71
2023/05/01 01:23:52;;;;;;;;;27.25;24.50;;;;;14.75;100.00;101388.28;5076548;28;45512;-71
2023/05/01 01:26:23;;;;;;;;;34.50;27.75;;;;;14.74;100.00;101389.16;5077464;28;46573;-71
2023/05/01 01:29:03;;;;;;;;;25.50;24.00;;;;;14.74;100.00;101384.72;5077567;28;45280;-71
2023/05/01 01:31:33;;;;;;;;;24.25;20.50;;;;;14.77;100.00;101386.53;5078058;28;45474;-71
2023/05/01 01:34:05;;;;;;;;;22.75;22.00;;;;;14.79;100.00;101390.06;5076552;28;45531;-70
2023/05/01 01:36:40;;;;;;;;;24.00;24.00;;;;;14.74;100.00;101383.84;5176711;22;46421;-71
2023/05/01 01:39:11;;;;;;;;;23.75;21.00;;;;;14.74;100.00;101386.50;5030967;28;45383;-71
2023/05/01 01:41:38;;;;;;;;;28.75;24.25;;;;;14.71;100.00;101384.75;5030792;28;45404;-71
2023/05/01 01:44:13;;;;;;;;;23.00;23.00;;;;;14.72;100.00;101391.81;5033595;28;63086;-70
2023/05/01 01:46:40;;;;;;;;;23.75;21.00;;;;;14.73;100.00;101390.06;5052305;28;46663;-70
2023/05/01 01:49:10;;;;;;;;;27.25;23.75;;;;;14.73;100.00;101384.75;5035058;28;63289;-70
2023/05/01 01:51:36;;;;;;;;;24.25;21.00;;;;;14.74;100.00;101378.53;5052568;28;45465;-72
2023/05/01 01:54:03;;;;;;;;;18.50;17.00;;;;;14.75;100.00;101386.50;5034440;28;46039;-72
2023/05/01 01:56:30;;;;;;;;;25.00;21.50;;;;;14.75;100.00;101393.59;5051597;28;68218;-71
2023/05/01 01:58:56;;;;;;;;;23.25;21.50;;;;;14.71;100.00;101384.75;5035369;28;45399;-71
2023/05/01 02:01:22;;;;;;;;;21.75;19.00;;;;;14.73;100.00;101384.75;5051832;28;60351;-71
2023/05/01 02:03:47;;;;;;;;;21.50;18.50;;;;;14.74;100.00;101389.16;5035648;28;45678;-71
2023/05/01 02:06:14;;;;;;;;;25.00;23.75;;;;;14.72;100.00;101386.50;5035153;28;45931;-71
2023/05/01 02:08:41;;;;;;;;;23.75;21.50;;;;;14.71;100.00;101390.06;5034511;28;70805;-70
2023/05/01 02:11:07;;;;;;;;;26.00;19.50;;;;;14.74;100.00;101391.81;5035222;28;45523;-70
2023/05/01 02:13:35;;;;;;;;;20.50;19.25;;;;;14.73;100.00;101387.41;5035772;28;63712;-70
2023/05/01 02:16:02;;;;;;;;;25.75;20.00;;;;;14.72;100.00;101397.16;5036337;28;46465;-71
2023/05/01 02:18:28;;;;;;;;;25.75;20.50;;;;;14.70;100.00;101387.38;5035388;28;45459;-71
2023/05/01 02:20:56;;;;;;;;;26.75;24.50;;;;;14.68;100.00;101390.03;5052338;28;45377;-70
2023/05/01 02:23:21;;;;;;;;;24.50;22.50;;;;;14.67;100.00;101404.22;5036865;28;45406;-71
2023/05/01 02:25:48;;;;;;;;;23.50;20.50;;;;;14.65;100.00;101398.03;5034885;28;46995;-71
2023/05/01 02:28:17;;;;;;;;;25.50;19.25;;;;;14.64;100.00;101398.88;5034470;28;69516;-71
2023/05/01 02:30:43;;;;;;;;;23.25;20.50;;;;;14.63;100.00;101397.09;5051917;28;45491;-72
2023/05/01 02:33:09;;;;;;;;;25.00;19.25;;;;;14.63;100.00;101402.44;5052055;28;45586;-70
2023/05/01 02:35:42;;;;;;;;;23.75;18.25;;;;;14.60;100.00;101399.78;5035843;28;46416;-73
2023/05/01 02:38:08;;;;;;;;;20.75;20.50;;;;;14.58;100.00;101401.50;5047791;28;45504;-72
2023/05/01 02:40:35;;;;;;;;;19.25;17.50;;;;;14.54;100.00;101397.97;5050979;28;45365;-72
2023/05/01 02:43:02;;;;;;;;;20.75;19.25;;;;;14.51;100.00;101397.97;5036153;28;45269;-73
2023/05/01 02:45:28;;;;;;;;;25.25;20.00;;;;;14.50;100.00;101397.97;5035239;28;68269;-70
2023/05/01 02:47:55;;;;;;;;;22.00;19.25;;;;;14.50;100.00;101398.84;5053518;28;63497;-72
2023/05/01 02:50:22;;;;;;;;;18.75;18.75;;;;;14.49;100.00;101391.75;5055494;28;45493;-70
2023/05/01 02:52:47;;;;;;;;;21.25;19.25;;;;;14.47;100.00;101388.19;5037815;28;61381;-69
2023/05/01 02:55:13;;;;;;;;;18.75;18.75;;;;;14.45;100.00;101379.31;5054350;28;64693;-73
2023/05/01 02:57:38;;;;;;;;;18.75;18.75;;;;;14.47;100.00;101382.88;5039440;28;45277;-72
2023/05/01 03:00:08;;;;;;;;;19.75;19.25;;;;;14.43;100.00;101381.03;5039707;28;45475;-70
2023/05/01 03:02:33;;;;;;;;;19.00;19.00;;;;;14.44;100.00;101392.59;5026886;28;45508;-71
2023/05/01 03:04:58;;;;;;;;;16.50;14.25;;;;;14.43;100.00;101389.03;5037694;28;46268;-71
2023/05/01 03:07:24;;;;;;;;;20.75;18.00;;;;;14.38;100.00;101388.09;5039438;28;45218;-72
2023/05/01 03:09:49;;;;;;;;;22.25;19.25;;;;;14.39;100.00;101392.56;5039011;28;49664;-73
2023/05/01 03:12:14;;;;;;;;;21.00;21.00;;;;;14.37;100.00;101395.19;5038714;28;61458;-71
2023/05/01 03:14:40;;;;;;;;;21.25;19.75;;;;;14.38;100.00;101402.31;5039265;28;45596;-72
2023/05/01 03:17:05;;;;;;;;;26.75;20.50;;;;;14.36;100.00;101400.50;5038522;28;65469;-72
2023/05/01 03:19:31;;;;;;;;;22.75;22.00;;;;;14.35;100.00;101396.97;5039532;28;45324;-72
2023/05/01 03:21:56;;;;;;;;;23.75;19.75;;;;;14.30;100.00;101389.88;5039232;28;45566;-72
2023/05/01 03:24:23;;;;;;;;;14.25;13.25;;;;;14.32;100.00;101393.41;5037976;28;45842;-71
2023/05/01 03:26:48;;;;;;;;;22.00;19.00;;;;;14.30;100.00;101397.84;5037902;28;45257;-71
2023/05/01 03:29:13;;;;;;;;;20.50;19.50;;;;;14.25;100.00;101389.84;5038585;28;62836;-72
2023/05/01 03:31:39;;;;;;;;;28.25;23.50;;;;;14.26;100.00;101399.56;5039476;28;45653;-72
2023/05/01 03:34:04;;;;;;;;;25.50;22.50;;;;;14.27;100.00;101395.16;5037925;28;68589;-72
2023/05/01 03:36:32;;;;;;;;;25.75;23.00;;;;;14.23;100.00;101396.03;5038123;28;65274;-71
2023/05/01 03:38:58;;;;;;;;;28.00;25.00;;;;;14.21;100.00;101397.78;5032724;28;45285;-72
2023/05/01 03:41:24;;;;;;;;;24.00;21.50;;;;;14.16;100.00;101393.31;5054580;28;45508;-72
2023/05/01 03:43:49;;;;;;;;;22.00;20.00;;;;;14.12;100.00;101394.22;5038737;28;46261;-73
2023/05/01 03:46:14;;;;;;;;;20.50;20.25;;;;;14.11;100.00;101388.88;5038898;28;45450;-71
2023/05/01 03:48:40;;;;;;;;;25.50;21.75;;;;;14.10;100.00;101393.28;5038222;28;64300;-72
2023/05/01 03:51:05;;;;;;;;;26.25;24.25;;;;;14.09;100.00;101387.97;5038954;28;45512;-72
2023/05/01 03:53:31;;;;;;;;;34.00;24.75;;;;;14.13;100.00;101398.63;5038425;28;46466;-72
2023/05/01 03:55:57;;;;;;;;;26.00;24.25;;;;;14.16;100.00;101405.72;5037251;28;45556;-72
2023/05/01 03:58:22;;;;;;;;;26.00;23.50;;;;;14.15;100.00;101398.63;5038626;28;45445;-72
2023/05/01 04:00:47;;;;;;;;;25.75;23.25;;;;;14.15;100.00;101401.28;5038248;28;52963;-73
2023/05/01 04:03:13;;;;;;;;;27.75;24.75;;;;;14.10;100.00;101393.28;5053822;28;45549;-72
2023/05/01 04:05:38;;;;;;;;;28.00;26.25;;;;;14.13;100.00;101393.31;5038424;28;45238;-70
2023/05/01 04:08:04;;;;;;;;;28.00;27.50;;;;;14.15;100.00;101388.91;5037844;28;52099;-71
2023/05/01 04:10:29;;;;;;;;;28.50;25.25;;;;;14.16;100.00;101401.28;5037605;28;45497;-72
2023/05/01 04:12:55;;;;;;;;;30.50;28.25;;;;;14.18;100.00;101403.09;5038180;28;46413;-72
2023/05/01 04:15:21;;;;;;;;;30.00;24.75;;;;;14.19;100.00;101402.22;5037664;28;64741;-72
2023/05/01 04:17:47;;;;;;;;;33.75;28.00;;;;;14.20;100.00;101399.53;5038432;28;45335;-72
2023/05/01 04:20:12;;;;;;;;;32.00;26.50;;;;;14.22;100.00;101394.22;5037485;28;45470;-73
2023/05/01 04:22:38;;;;;;;;;35.00;31.25;;;;;14.24;100.00;101401.34;5038864;28;46090;-72
2023/05/01 04:25:03;;;;;;;;;32.25;26.25;;;;;14.26;100.00;101396.03;5037953;28;53525;-72
2023/05/01 04:27:29;;;;;;;;;29.75;25.75;;;;;14.25;100.00;101399.56;5038381;28;45401;-72
2023/05/01 04:29:54;;;;;;;;;34.25;32.00;;;;;14.29;100.00;101404.91;5038478;28;45328;-71
2023/05/01 04:32:20;;;;;;;;;32.75;30.00;;;;;14.33;100.00;101408.50;5037321;28;70947;-72
2023/05/01 04:34:45;;;;;;;;;35.75;30.50;;;;;14.32;100.00;101404.91;5038272;28;45299;-73
2023/05/01 04:37:11;;;;;;;;;41.25;31.50;;;;;14.33;100.00;101413.78;5053577;28;45465;-71
2023/05/01 04:39:36;;;;;;;;;38.75;32.25;;;;;14.32;100.00;101409.34;5033982;28;45335;-72
2023/05/01 04:42:03;;;;;;;;;39.00;33.25;;;;;14.30;100.00;101413.78;5037711;28;46461;-72
2023/05/01 04:44:28;;;;;;;;;33.00;30.25;;;;;14.27;100.00;101411.09;5053585;28;45360;-72
2023/05/01 04:46:53;;;;;;;;;38.25;33.00;;;;;14.26;100.00;101411.97;5036302;28;57330;-72
2023/05/01 04:49:20;;;;;;;;;39.75;33.00;;;;;14.29;100.00;101420.84;5038090;28;45173;-72
2023/05/01 04:51:46;;;;;;;;;41.50;32.75;;;;;14.29;100.00;101419.97;5053366;28;45809;-72
2023/05/01 04:54:11;;;;;;;;;42.50;33.75;;;;;14.28;100.00;101416.44;5037524;28;45276;-71
2023/05/01 04:56:37;;;;;;;;;38.75;34.50;;;;;14.27;100.00;101414.63;5052709;28;63145;-72
2023/05/01 04:59:02;;;;;;;;;36.25;31.50;;;;;14.26;100.00;101420.81;5037807;28;45253;-71
2023/05/01 05:01:27;;;;;;;;;50.75;35.50;;;;;14.27;100.00;101421.72;5036721;28;65264;-72
2023/05/01 05:03:53;;;;;;;;;43.50;35.25;;;;;14.26;100.00;101423.47;5037555;28;45449;-71
2023/05/01 05:06:18;;;;;;;;;40.50;34.75;;;;;14.25;100.00;101421.72;5037540;28;45570;-72
2023/05/01 05:08:43;;;;;;;;;28.75;28.75;;;;;14.27;100.00;101424.38;5036949;28;57719;-72
2023/05/01 05:11:09;;;;;;;;;36.25;32.50;;;;;14.29;100.00;101427.94;5051967;28;60807;-72
2023/05/01 05:13:35;;;;;;;;;36.75;34.25;;;;;14.29;100.00;101430.59;5037242;28;45520;-72
2023/05/01 05:16:00;;;;;;;;;43.00;35.00;;;;;14.32;100.00;101435.91;5037740;28;45315;-73
2023/05/01 05:18:25;;;;;;;;;48.25;38.00;;;;;14.31;100.00;101431.47;5035483;28;60854;-71
2023/05/01 05:20:51;;;;;;;;;48.75;35.25;;;;;14.32;100.00;101425.28;5036823;28;64756;-72
2023/05/01 05:23:16;;;;;;;;;42.50;34.75;;;;;14.36;100.00;101433.28;5036000;28;45337;-72
2023/05/01 05:25:41;;;;;;;;;49.25;37.75;;;;;14.39;100.00;101435.06;5036565;28;61297;-72
2023/05/01 05:28:07;;;;;;;;;42.25;36.25;;;;;14.41;100.00;101439.50;5036808;28;60323;-72
2023/05/01 05:30:32;;;;;;;;;41.75;35.25;;;;;14.42;100.00;101433.31;5037415;28;45702;-72
2023/05/01 05:32:58;;;;;;;;;48.75;36.75;;;;;14.43;100.00;101442.16;5035811;28;45403;-72
2023/05/01 05:35:24;;;;;;;;;40.00;36.75;;;;;14.44;100.00;101443.06;5036993;28;45154;-72
2023/05/01 05:37:49;;;;;;;;;54.00;38.75;;;;;14.44;100.00;101438.66;5036371;28;45383;-73
2023/05/01 05:40:15;;;;;;;;;43.50;35.50;;;;;14.46;100.00;101438.66;5031998;28;45835;-72
2023/05/01 05:42:40;;;;;;;;;50.25;41.50;;;;;14.48;100.00;101442.22;5035730;28;45441;-73
2023/05/01 05:45:06;;;;;;;;;43.75;36.75;;;;;14.49;100.00;101436.00;5036309;28;60592;-73
2023/05/01 05:47:31;;;;;;;;;51.25;39.50;;;;;14.55;100.00;101450.25;5035803;28;45228;-71
2023/05/01 05:49:57;;;;;;;;;47.00;37.25;;;;;14.58;100.00;101444.94;5051626;28;65798;-72
2023/05/01 05:52:22;;;;;;;;;44.75;38.50;;;;;14.60;100.00;101450.28;5035188;28;59574;-73
2023/05/01 05:54:48;;;;;;;;;49.25;38.25;;;;;14.62;100.00;101443.19;5036659;28;47190;-73
2023/05/01 05:57:13;;;;;;;;;49.75;39.50;;;;;14.60;100.00;101434.31;5037212;28;45356;-73
2023/05/01 05:59:39;;;;;;;;;50.25;38.00;;;;;14.62;100.00;101440.53;5035290;28;46827;-72
2023/05/01 06:02:04;;;;;;;;;54.00;42.25;;;;;14.61;100.00;101439.63;5036665;28;45556;-72
2023/05/01 06:04:29;;;;;;;;;44.75;36.25;;;;;14.61;100.00;101434.31;5035909;28;62819;-73
2023/05/01 06:06:56;;;;;;;;;49.50;38.25;;;;;14.64;100.00;101436.97;5036614;28;45458;-73
2023/05/01 06:09:21;;;;;;;;;54.50;41.25;;;;;14.71;100.00;101445.00;5035454;28;46067;-71
2023/05/01 06:11:47;;;;;;;;;53.00;39.00;;;;;14.74;100.00;101450.31;5036376;28;45525;-72
2023/05/01 06:14:12;;;;;;;;;53.50;39.00;;;;;14.75;100.00;101452.06;5036666;28;45240;-71
2023/05/01 06:16:38;;;;;;;;;49.50;41.50;;;;;14.70;100.00;101429.91;5036778;28;45423;-73
2023/05/01 06:19:03;;;;;;;;;53.50;40.25;;;;;14.73;100.00;101444.09;5035220;28;47495;-72
2023/05/01 06:21:30;;;;;;;;;53.50;42.00;;;;;14.71;100.00;101442.34;5034572;28;63655;-72
2023/05/01 06:23:56;;;;;;;;;51.25;40.00;;;;;14.68;100.00;101443.19;5036459;28;45240;-71
2023/05/01 06:26:22;;;;;;;;;50.25;42.75;;;;;14.66;100.00;101444.97;5035729;28;62841;-73
2023/05/01 06:28:47;;;;;;;;;52.25;39.00;;;;;14.61;100.00;101444.94;5036257;28;45768;-71
2023/05/01 06:31:12;;;;;;;;;57.50;43.25;;;;;14.58;100.00;101450.25;5035874;28;63769;-72
2023/05/01 06:33:38;;;;;;;;;51.75;39.00;;;;;14.59;100.00;101448.47;5035624;28;61940;-73
2023/05/01 06:36:03;;;;;;;;;53.25;38.25;;;;;14.58;100.00;101454.66;5035887;28;59137;-72
2023/05/01 06:38:28;;;;;;;;;52.50;41.50;;;;;14.55;100.00;101447.59;5031605;28;47746;-72
2023/05/01 06:40:54;;;;;;;;;49.25;37.75;;;;;14.56;100.00;101449.34;5035186;28;64517;-72
2023/05/01 06:43:20;;;;;;;;;54.00;42.50;;;;;14.59;100.00;101452.00;5035035;28;45439;-72
2023/05/01 06:45:45;;;;;;;;;54.25;41.00;;;;;14.58;100.00;101450.25;5035248;28;45473;-72
2023/05/01 06:48:10;;;;;;;;;52.00;38.00;;;;;14.60;100.00;101458.25;5035194;28;69508;-72
2023/05/01 06:50:36;;;;;;;;;56.00;41.00;;;;;14.63;100.00;101458.22;5035978;28;45300;-72
2023/05/01 06:53:01;;;;;;;;;51.25;38.25;;;;;14.69;100.00;101458.25;5036051;28;45232;-71
2023/05/01 06:55:30;;;;;;;;;43.25;36.00;;;;;14.74;100.00;101460.94;5038037;28;45529;-72
2023/05/01 06:57:58;;;;;;;;;47.75;39.00;;;;;14.76;100.00;101464.50;5017582;28;47541;-72
2023/05/01 07:00:23;;;;;;;;;53.25;40.25;;;;;14.81;100.00;101460.09;5035923;28;45289;-72
2023/05/01 07:02:48;;;;;;;;;52.75;38.25;;;;;14.85;100.00;101456.53;5035223;28;64092;-72
2023/05/01 07:05:14;;;;;;;;;54.50;41.00;;;;;14.96;100.00;101462.78;5034725;28;45328;-72
2023/05/01 07:07:39;;;;;;;;;43.75;34.50;;;;;15.10;100.00;101458.41;5036216;28;45557;-72
2023/05/01 07:10:05;;;;;;;;;45.75;37.50;;;;;15.24;100.00;101465.53;5035420;28;64433;-72
2023/05/01 07:12:30;;;;;;;;;45.25;36.50;;;;;15.38;100.00;101454.00;5035899;28;45420;-72
2023/05/01 07:14:56;;;;;;;;;48.00;37.00;;;;;15.54;100.00;101465.56;5036021;28;45504;-72
2023/05/01 07:17:22;;;;;;;;;45.75;35.00;;;;;15.68;100.00;101470.94;5035806;28;45829;-72
2023/05/01 07:19:47;;;;;;;;;42.50;32.50;;;;;15.76;100.00;101469.16;5034785;28;45257;-73
2023/05/01 07:22:12;;;;;;;;;38.75;33.00;;;;;15.86;100.00;101470.03;5035821;28;45312;-72
2023/05/01 07:24:38;;;;;;;;;45.75;35.00;;;;;15.92;100.00;101468.25;5036008;28;45230;-72
2023/05/01 07:27:03;;;;;;;;;39.00;29.25;;;;;15.98;100.00;101464.72;5034565;28;68074;-72
2023/05/01 07:29:28;;;;;;;;;34.75;29.75;;;;;16.05;100.00;101474.47;5033946;28;59693;-72
2023/05/01 07:31:54;;;;;;;;;25.50;24.00;;;;;16.08;100.00;101476.22;5035516;28;45562;-71
2023/05/01 07:34:19;;;;;;;;;22.50;21.25;;;;;16.06;100.00;101478.03;5054187;28;45256;-72
2023/05/01 07:36:45;;;;;;;;;22.75;22.25;;;;;16.05;100.00;101474.47;5037482;28;45285;-72
2023/05/01 07:39:10;;;;;;;;;23.75;19.50;;;;;16.09;100.00;101473.59;5035035;28;45324;-72
2023/05/01 07:41:36;;;;;;;;;25.25;18.75;;;;;16.12;100.00;101478.88;5038935;28;45281;-72
2023/05/01 07:44:01;;;;;;;;;25.75;21.75;;;;;16.17;100.00;101476.22;5039007;28;45531;-73
2023/05/01 07:46:26;;;;;;;;;20.75;19.00;;;;;16.30;100.00;101477.06;5038604;28;45990;-71
2023/05/01 07:48:52;;;;;;;;;27.00;20.00;;;;;16.40;100.00;101476.16;5038752;28;45222;-72
2023/05/01 07:51:17;;;;;;;;;21.00;19.25;;;;;16.41;100.00;101475.28;5038947;28;45213;-72
2023/05/01 07:53:43;;;;;;;;;26.67;23.00;;;;;16.44;100.00;101486.81;5038984;28;45300;-74
2023/05/01 07:56:09;;;;;;;;;32.25;27.75;;;;;16.43;100.00;101486.84;5038370;28;45894;-72
2023/05/01 07:58:35;;;;;;;;;25.00;23.75;;;;;16.41;100.00;101481.50;5038730;28;45316;-73
2023/05/01 08:01:01;;;;;;;;;28.75;26.50;;;;;16.39;100.00;101485.06;5037121;28;45300;-72
2023/05/01 08:03:28;;;;;;;;;24.00;22.50;;;;;16.37;100.00;101486.84;5054314;28;45612;-72
2023/05/01 08:05:54;;;;;;;;;27.00;25.00;;;;;16.32;100.00;101481.53;5038204;28;46768;-73
2023/05/01 08:08:20;;;;;;;;;25.67;22.33;;;;;16.30;100.00;101483.31;5038306;28;45355;-72
2023/05/01 08:10:46;;;;;;;;;27.00;24.00;;;;;16.31;100.00;101484.22;5054346;28;45225;-72
2023/05/01 08:13:11;;;;;;;;;27.25;23.50;;;;;16.30;100.00;101482.41;5060841;28;45369;-73
2023/05/01 08:15:38;;;;;;;;;23.25;22.75;;;;;16.31;100.00;101485.09;5053607;28;62448;-72
2023/05/01 08:18:03;;;;;;;;;22.50;21.00;;;;;16.32;100.00;101481.53;5054077;28;45382;-72
2023/05/01 08:20:29;;;;;;;;;26.75;24.00;;;;;16.31;100.00;101492.19;5037055;28;45438;-72
2023/05/01 08:22:54;;;;;;;;;25.00;20.67;;;;;16.25;100.00;101479.78;5038713;28;45285;-72
2023/05/01 08:25:20;;;;;;;;;26.25;23.00;;;;;16.27;100.00;101490.41;5038069;28;45614;-73
2023/05/01 08:27:45;;;;;;;;;33.00;27.00;;;;;16.26;100.00;101496.66;5037579;28;60446;-73
2023/05/01 08:30:10;;;;;;;;;29.50;25.75;;;;;16.24;100.00;101493.97;5036916;28;45821;-73
2023/05/01 08:32:36;;;;;;;;;27.25;22.50;;;;;16.22;100.00;101498.41;5038343;28;45583;-72
2023/05/01 08:35:01;;;;;;;;;28.75;26.75;;;;;16.23;100.00;101498.41;5037244;28;67753;-72
2023/05/01 08:37:26;;;;;;;;;23.00;21.75;;;;;16.27;100.00;101493.97;5033155;28;45987;-72
2023/05/01 08:39:52;;;;;;;;;28.00;24.00;;;;;16.37;100.00;101490.41;5035829;28;55670;-72
2023/05/01 08:42:17;;;;;;;;;25.50;20.25;;;;;16.52;100.00;101492.16;5038036;28;45556;-73
2023/05/01 08:44:45;;;;;;;;;23.00;21.67;;;;;16.59;100.00;101501.88;5037223;28;63060;-72
2023/05/01 08:47:14;;;;;;;;;26.67;22.00;;;;;16.61;100.00;101500.09;5036415;28;45359;-73
2023/05/01 08:49:40;;;;;;;;;21.33;18.33;;;;;16.54;100.00;101495.69;5053882;28;45349;-73
2023/05/01 08:52:07;;;;;;;;;21.67;17.33;;;;;16.48;100.00;101503.69;5053786;28;45258;-72
2023/05/01 08:54:33;;;;;;;;;24.00;16.00;;;;;16.48;100.00;101501.91;5019664;28;47068;-73
2023/05/01 08:57:03;;;;;;;;;23.67;20.00;;;;;16.55;100.00;101509.91;5036775;28;45377;-71
2023/05/01 08:59:33;;;;;;;;;20.67;15.33;;;;;16.56;100.00;101509.88;5053352;28;45359;-73
2023/05/01 09:02:00;;;;;;;;;17.67;17.67;;;;;16.58;100.00;101528.56;5037648;28;45174;-72
2023/05/01 09:04:31;;;;;;;;;20.33;13.00;;;;;16.59;100.00;101525.88;5037328;28;47789;-73
2023/05/01 09:06:59;;;;;;;;;20.67;14.67;;;;;16.60;100.00;101518.78;5036130;28;45411;-71
2023/05/01 09:09:25;;;;;;;;;20.33;15.00;;;;;16.58;100.00;101524.13;5053111;28;45554;-70
2023/05/01 09:11:50;;;;;;;;;16.33;16.33;;;;;16.56;100.00;101517.00;5037568;28;45419;-73
2023/05/01 09:14:16;;;;;;;;;15.67;14.00;;;;;16.54;100.00;101517.00;5035427;28;67159;-72
2023/05/01 09:16:41;;;;;;;;;15.00;13.33;;;;;16.52;100.00;101518.81;5036228;28;45240;-73
2023/05/01 09:19:07;;;;;;;;;15.00;12.00;;;;;16.50;100.00;101523.22;5036728;28;62021;-72
2023/05/01 09:21:32;;;;;;;;;13.33;11.67;;;;;16.44;100.00;101515.25;5036628;28;45454;-72
2023/05/01 09:23:58;;;;;;;;;12.00;12.00;;;;;16.42;100.00;101520.59;5035854;28;48373;-72
2023/05/01 09:26:23;;;;;;;;;11.67;10.67;;;;;16.40;100.00;101517.03;5036007;28;45476;-72
2023/05/01 09:28:50;;;;;;;;;13.67;11.00;;;;;16.45;100.00;101525.91;5036885;28;55154;-72
2023/05/01 09:31:23;;;;;;;;;13.00;12.00;;;;;16.50;100.00;101529.44;5037456;28;45649;-72
2023/05/01 09:33:53;;;;;;;;;12.00;12.00;;;;;16.52;100.00;101528.59;5037046;28;46553;-72
2023/05/01 09:36:18;;;;;;;;;13.67;10.67;;;;;16.59;100.00;101523.22;5037201;28;45287;-72
2023/05/01 09:38:44;;;;;;;;;8.33;8.33;;;;;16.69;100.00;101524.09;5032166;28;59616;-72
2023/05/01 09:41:09;;;;;;;;;12.33;11.33;;;;;16.76;100.00;101520.53;5037455;28;45220;-72
2023/05/01 09:43:35;;;;;;;;;12.00;11.33;;;;;16.77;100.00;101516.97;5037056;28;45738;-72
2023/05/01 09:46:05;;;;;;;;;13.67;10.67;;;;;16.84;100.00;101523.19;5036232;28;60157;-72
2023/05/01 09:48:31;;;;;;;;;8.33;8.33;;;;;16.87;100.00;101516.03;5035958;28;45531;-72
2023/05/01 09:50:57;;;;;;;;;10.00;7.00;;;;;16.93;100.00;101520.47;5035817;28;45482;-73
2023/05/01 09:53:39;;;;;;;;;7.67;7.67;;;;;16.95;100.00;101521.38;5052349;28;45257;-73
2023/05/01 09:56:04;;;;;;;;;7.00;7.00;;;;;16.92;100.00;101518.69;5035246;28;45554;-71
2023/05/01 09:58:30;;;;;;;;;14.00;10.67;;;;;16.93;100.00;101525.78;5035984;28;45470;-72
2023/05/01 10:00:55;;;;;;;;;10.33;8.67;;;;;16.91;100.00;101533.81;5036779;28;45519;-72
2023/05/01 10:03:21;;;;;;;;;10.00;7.33;;;;;16.86;100.00;101532.06;5036756;28;46346;-73
2023/05/01 10:05:46;;;;;;;;;8.00;8.00;;;;;16.85;100.00;101532.97;5052011;28;45390;-72
2023/05/01 10:08:14;;;;;;;;;10.67;9.67;;;;;16.88;100.00;101523.16;5036645;28;45545;-72
2023/05/01 10:10:42;;;;;;;;;14.00;11.00;;;;;16.93;100.00;101520.47;5035728;28;45526;-73
2023/05/01 10:13:16;;;;;;;;;13.67;9.00;;;;;17.03;100.00;101524.88;5051483;28;46219;-73
2023/05/01 10:15:45;;;;;;;;;9.67;9.67;;;;;17.14;100.00;101522.16;5036725;28;45321;-73
2023/05/01 10:18:11;;;;;;;;;13.00;10.67;;;;;17.32;100.00;101518.50;5036547;28;45365;-72
2023/05/01 10:20:37;;;;;;;;;15.00;13.33;;;;;17.45;100.00;101520.19;5052287;28;45480;-72
2023/05/01 10:23:02;;;;;;;;;15.00;14.00;;;;;17.57;100.00;101527.22;5035474;28;45569;-72
2023/05/01 10:25:28;;;;;;;;;13.00;13.00;;;;;17.63;100.00;101511.16;5036245;28;45426;-73
2023/05/01 10:27:54;;;;;;;;;12.67;11.00;;;;;17.67;100.00;101523.59;5036733;28;45297;-71
2023/05/01 10:30:20;;;;;;;;;14.67;10.33;;;;;17.62;100.00;101514.75;5018606;28;45488;-72
2023/05/01 10:32:46;;;;;;;;;12.67;9.67;;;;;17.58;100.00;101518.31;5018631;28;47143;-72
2023/05/01 10:35:14;;;;;;;;;11.00;11.00;;;;;17.54;100.00;101525.47;5035793;28;45438;-71
2023/05/01 10:37:47;;;;;;;;;13.67;12.67;;;;;17.52;100.00;101522.84;5036627;28;45340;-73
2023/05/01 10:40:37;;;;;;;;;13.33;12.00;;;;;17.59;100.00;101522.78;5035407;28;46325;-73
2023/05/01 10:43:28;;;;;;;;;16.00;13.00;;;;;17.64;100.00;101520.97;5035979;28;46926;-72
2023/05/01 10:46:19;;;;;;;;;14.33;12.67;;;;;17.70;100.00;101515.59;5034396;28;45416;-72
2023/05/01 10:48:45;;;;;;;;;13.33;12.33;;;;;17.75;100.00;101519.16;5038528;28;45126;-72
2023/05/01 10:51:14;;;;;;;;;13.33;11.67;;;;;17.80;100.00;101517.31;5036533;28;45530;-72
2023/05/01 10:54:11;;;;;;;;;17.67;14.67;;;;;17.86;100.00;101517.28;5036030;28;45927;-73
2023/05/01 10:56:36;;;;;;;;;15.00;12.00;;;;;17.97;100.00;101525.19;5034464;28;45349;-71
2023/05/01 10:59:05;;;;;;;;;19.67;14.67;;;;;18.09;100.00;101517.06;5036128;28;45297;-72
2023/05/01 11:01:32;;;;;;;;;16.00;13.00;;;;;18.21;100.00;101500.03;5036141;28;45193;-73